sensor_id;sensor_type;location;lat;lon;timestamp;P1;durP1;ratioP1;P2;durP2;ratioP2
22070;SDS011;11200;51.488;6.668;2023-10-13T00:00:25;6.97;;;5.10;;
22070;SDS011;11200;51.488;6.668;2023-10-13T00:02:54;8.35;;;5.70;;
22070;SDS011;11200;51.488;6.668;2023-10-13T00:05:29;9.55;;;5.57;;
22070;SDS011;11200;51.488;6.668;2023-10-13T00:07:56;7.00;;;5.22;;
22070;SDS011;11200;51.488;6.668;2023-10-13T00:10:32;7.18;;;5.55;;
22070;SDS011;11200;51.488;6.668;2023-10-13T00:13:01;6.78;;;5.45;;
22070;SDS011;11200;51.488;6.668;2023-10-13T00:15:40;7.72;;;5.40;;
22070;SDS011;11200;51.488;6.668;2023-10-13T00:18:28;6.35;;;5.45;;
22070;SDS011;11200;51.488;6.668;2023-10-13T00:20:59;6.30;;;5.43;;
22070;SDS011;11200;51.488;6.668;2023-10-13T00:23:37;6.00;;;5.38;;
22070;SDS011;11200;51.488;6.668;2023-10-13T00:26:04;7.60;;;5.75;;
22070;SDS011;11200;51.488;6.668;2023-10-13T00:28:34;6.55;;;5.38;;
22070;SDS011;11200;51.488;6.668;2023-10-13T00:31:22;7.50;;;5.32;;
22070;SDS011;11200;51.488;6.668;2023-10-13T00:33:48;7.10;;;5.50;;
22070;SDS011;11200;51.488;6.668;2023-10-13T00:36:14;7.32;;;5.05;;
22070;SDS011;11200;51.488;6.668;2023-10-13T00:38:44;7.50;;;4.95;;
22070;SDS011;11200;51.488;6.668;2023-10-13T00:41:14;8.20;;;5.47;;
22070;SDS011;11200;51.488;6.668;2023-10-13T00:43:47;7.50;;;5.72;;
22070;SDS011;11200;51.488;6.668;2023-10-13T00:46:30;7.32;;;4.93;;
22070;SDS011;11200;51.488;6.668;2023-10-13T00:48:58;6.65;;;4.90;;
22070;SDS011;11200;51.488;6.668;2023-10-13T00:51:24;5.43;;;4.93;;
22070;SDS011;11200;51.488;6.668;2023-10-13T00:54:13;7.88;;;5.28;;
22070;SDS011;11200;51.488;6.668;2023-10-13T00:56:41;5.13;;;4.63;;
22070;SDS011;11200;51.488;6.668;2023-10-13T00:59:29;7.63;;;4.90;;
22070;SDS011;11200;51.488;6.668;2023-10-13T01:02:07;6.13;;;4.93;;
22070;SDS011;11200;51.488;6.668;2023-10-13T01:04:51;6.03;;;4.40;;
22070;SDS011;11200;51.488;6.668;2023-10-13T01:07:19;6.13;;;4.68;;
22070;SDS011;11200;51.488;6.668;2023-10-13T01:09:47;5.63;;;4.72;;
22070;SDS011;11200;51.488;6.668;2023-10-13T01:12:12;5.93;;;5.15;;
22070;SDS011;11200;51.488;6.668;2023-10-13T01:14:39;6.72;;;4.90;;
22070;SDS011;11200;51.488;6.668;2023-10-13T01:17:05;6.13;;;4.95;;
22070;SDS011;11200;51.488;6.668;2023-10-13T01:19:35;6.32;;;5.20;;
22070;SDS011;11200;51.488;6.668;2023-10-13T01:22:04;5.20;;;4.70;;
22070;SDS011;11200;51.488;6.668;2023-10-13T01:24:31;5.55;;;4.95;;
22070;SDS011;11200;51.488;6.668;2023-10-13T01:27:00;6.85;;;5.20;;
22070;SDS011;11200;51.488;6.668;2023-10-13T01:29:49;6.10;;;5.00;;
22070;SDS011;11200;51.488;6.668;2023-10-13T01:32:18;5.55;;;5.00;;
22070;SDS011;11200;51.488;6.668;2023-10-13T01:34:44;5.55;;;4.95;;
22070;SDS011;11200;51.488;6.668;2023-10-13T01:37:11;5.30;;;4.80;;
22070;SDS011;11200;51.488;6.668;2023-10-13T01:39:36;6.10;;;4.97;;
22070;SDS011;11200;51.488;6.668;2023-10-13T01:42:02;5.55;;;4.72;;
22070;SDS011;11200;51.488;6.668;2023-10-13T01:44:28;7.03;;;5.40;;
22070;SDS011;11200;51.488;6.668;2023-10-13T01:46:55;5.82;;;4.57;;
22070;SDS011;11200;51.488;6.668;2023-10-13T01:49:24;5.65;;;5.05;;
22070;SDS011;11200;51.488;6.668;2023-10-13T01:51:52;6.20;;;4.90;;
22070;SDS011;11200;51.488;6.668;2023-10-13T01:54:19;6.97;;;4.55;;
22070;SDS011;11200;51.488;6.668;2023-10-13T01:56:47;6.35;;;5.00;;
22070;SDS011;11200;51.488;6.668;2023-10-13T01:59:14;6.78;;;4.75;;
22070;SDS011;11200;51.488;6.668;2023-10-13T02:01:40;5.53;;;4.90;;
22070;SDS011;11200;51.488;6.668;2023-10-13T02:04:07;7.18;;;5.15;;
22070;SDS011;11200;51.488;6.668;2023-10-13T02:06:36;5.65;;;4.60;;
22070;SDS011;11200;51.488;6.668;2023-10-13T02:09:06;5.30;;;4.80;;
22070;SDS011;11200;51.488;6.668;2023-10-13T02:11:41;5.97;;;5.03;;
22070;SDS011;11200;51.488;6.668;2023-10-13T02:14:08;5.90;;;4.90;;
22070;SDS011;11200;51.488;6.668;2023-10-13T02:16:37;6.05;;;5.25;;
22070;SDS011;11200;51.488;6.668;2023-10-13T02:19:04;5.40;;;4.90;;
22070;SDS011;11200;51.488;6.668;2023-10-13T02:21:30;6.30;;;4.85;;
22070;SDS011;11200;51.488;6.668;2023-10-13T02:23:57;5.80;;;4.80;;
22070;SDS011;11200;51.488;6.668;2023-10-13T02:26:31;5.78;;;4.60;;
22070;SDS011;11200;51.488;6.668;2023-10-13T02:28:57;6.75;;;5.22;;
22070;SDS011;11200;51.488;6.668;2023-10-13T02:31:27;5.45;;;4.50;;
22070;SDS011;11200;51.488;6.668;2023-10-13T02:33:52;6.25;;;5.28;;
22070;SDS011;11200;51.488;6.668;2023-10-13T02:36:18;5.55;;;4.80;;
22070;SDS011;11200;51.488;6.668;2023-10-13T02:38:49;5.82;;;4.97;;
22070;SDS011;11200;51.488;6.668;2023-10-13T02:41:19;5.88;;;5.18;;
22070;SDS011;11200;51.488;6.668;2023-10-13T02:43:52;5.50;;;4.78;;
22070;SDS011;11200;51.488;6.668;2023-10-13T02:46:19;5.35;;;4.85;;
22070;SDS011;11200;51.488;6.668;2023-10-13T02:48:47;5.55;;;5.05;;
22070;SDS011;11200;51.488;6.668;2023-10-13T02:51:19;6.35;;;5.28;;
22070;SDS011;11200;51.488;6.668;2023-10-13T02:54:00;6.40;;;5.03;;
22070;SDS011;11200;51.488;6.668;2023-10-13T02:56:28;5.10;;;4.60;;
22070;SDS011;11200;51.488;6.668;2023-10-13T02:58:54;6.05;;;5.43;;
22070;SDS011;11200;51.488;6.668;2023-10-13T03:01:29;6.68;;;5.30;;
22070;SDS011;11200;51.488;6.668;2023-10-13T03:03:59;7.07;;;5.57;;
22070;SDS011;11200;51.488;6.668;2023-10-13T03:06:26;6.10;;;5.28;;
22070;SDS011;11200;51.488;6.668;2023-10-13T03:09:03;8.07;;;5.55;;
22070;SDS011;11200;51.488;6.668;2023-10-13T03:11:43;6.88;;;5.50;;
22070;SDS011;11200;51.488;6.668;2023-10-13T03:14:19;5.63;;;4.95;;
22070;SDS011;11200;51.488;6.668;2023-10-13T03:16:53;5.57;;;5.00;;
22070;SDS011;11200;51.488;6.668;2023-10-13T03:19:20;6.00;;;5.32;;
22070;SDS011;11200;51.488;6.668;2023-10-13T03:21:46;6.63;;;5.00;;
22070;SDS011;11200;51.488;6.668;2023-10-13T03:24:22;6.28;;;5.20;;
22070;SDS011;11200;51.488;6.668;2023-10-13T03:26:58;6.10;;;4.90;;
22070;SDS011;11200;51.488;6.668;2023-10-13T03:29:44;5.55;;;5.05;;
22070;SDS011;11200;51.488;6.668;2023-10-13T03:32:19;8.23;;;5.70;;
22070;SDS011;11200;51.488;6.668;2023-10-13T03:34:45;7.97;;;5.40;;
22070;SDS011;11200;51.488;6.668;2023-10-13T03:37:32;5.43;;;4.88;;
22070;SDS011;11200;51.488;6.668;2023-10-13T03:40:04;6.70;;;5.55;;
22070;SDS011;11200;51.488;6.668;2023-10-13T03:42:53;5.57;;;5.07;;
22070;SDS011;11200;51.488;6.668;2023-10-13T03:45:34;5.95;;;5.35;;
22070;SDS011;11200;51.488;6.668;2023-10-13T03:48:05;6.30;;;5.28;;
22070;SDS011;11200;51.488;6.668;2023-10-13T03:50:37;8.23;;;5.25;;
22070;SDS011;11200;51.488;6.668;2023-10-13T03:53:27;6.53;;;5.22;;
22070;SDS011;11200;51.488;6.668;2023-10-13T03:55:58;7.88;;;5.32;;
22070;SDS011;11200;51.488;6.668;2023-10-13T03:58:36;6.95;;;4.85;;
22070;SDS011;11200;51.488;6.668;2023-10-13T04:01:03;6.20;;;5.50;;
22070;SDS011;11200;51.488;6.668;2023-10-13T04:03:35;5.68;;;5.07;;
22070;SDS011;11200;51.488;6.668;2023-10-13T04:06:22;7.95;;;5.35;;
22070;SDS011;11200;51.488;6.668;2023-10-13T04:09:08;7.15;;;5.13;;
22070;SDS011;11200;51.488;6.668;2023-10-13T04:12:07;5.70;;;5.07;;
22070;SDS011;11200;51.488;6.668;2023-10-13T04:14:43;6.05;;;5.13;;
22070;SDS011;11200;51.488;6.668;2023-10-13T04:17:31;5.47;;;4.97;;
22070;SDS011;11200;51.488;6.668;2023-10-13T04:20:11;5.43;;;4.93;;
22070;SDS011;11200;51.488;6.668;2023-10-13T04:22:39;6.57;;;5.57;;
22070;SDS011;11200;51.488;6.668;2023-10-13T04:25:29;5.60;;;4.93;;
22070;SDS011;11200;51.488;6.668;2023-10-13T04:27:54;7.43;;;5.28;;
22070;SDS011;11200;51.488;6.668;2023-10-13T04:33:27;5.80;;;5.03;;
22070;SDS011;11200;51.488;6.668;2023-10-13T04:36:08;7.30;;;5.43;;
22070;SDS011;11200;51.488;6.668;2023-10-13T04:38:46;6.28;;;5.55;;
22070;SDS011;11200;51.488;6.668;2023-10-13T04:41:38;8.20;;;5.10;;
22070;SDS011;11200;51.488;6.668;2023-10-13T04:44:04;6.10;;;5.40;;
22070;SDS011;11200;51.488;6.668;2023-10-13T04:46:51;6.13;;;5.30;;
22070;SDS011;11200;51.488;6.668;2023-10-13T04:49:24;7.38;;;5.28;;
22070;SDS011;11200;51.488;6.668;2023-10-13T04:52:08;6.78;;;5.65;;
22070;SDS011;11200;51.488;6.668;2023-10-13T04:54:37;7.60;;;5.63;;
22070;SDS011;11200;51.488;6.668;2023-10-13T04:57:11;6.97;;;5.93;;
22070;SDS011;11200;51.488;6.668;2023-10-13T04:59:55;6.10;;;5.07;;
22070;SDS011;11200;51.488;6.668;2023-10-13T05:02:45;6.43;;;5.25;;
22070;SDS011;11200;51.488;6.668;2023-10-13T05:05:21;6.30;;;5.70;;
22070;SDS011;11200;51.488;6.668;2023-10-13T05:08:06;6.35;;;5.22;;
22070;SDS011;11200;51.488;6.668;2023-10-13T05:10:50;6.38;;;5.18;;
22070;SDS011;11200;51.488;6.668;2023-10-13T05:13:35;7.97;;;5.70;;
22070;SDS011;11200;51.488;6.668;2023-10-13T05:16:19;7.65;;;5.50;;
22070;SDS011;11200;51.488;6.668;2023-10-13T05:19:03;7.63;;;5.55;;
22070;SDS011;11200;51.488;6.668;2023-10-13T05:21:48;6.50;;;5.22;;
22070;SDS011;11200;51.488;6.668;2023-10-13T05:24:32;7.28;;;5.68;;
22070;SDS011;11200;51.488;6.668;2023-10-13T05:27:16;7.50;;;5.25;;
22070;SDS011;11200;51.488;6.668;2023-10-13T05:30:04;6.55;;;5.60;;
22070;SDS011;11200;51.488;6.668;2023-10-13T05:32:49;6.95;;;5.75;;
22070;SDS011;11200;51.488;6.668;2023-10-13T05:35:33;5.75;;;5.10;;
22070;SDS011;11200;51.488;6.668;2023-10-13T05:38:17;5.78;;;4.82;;
22070;SDS011;11200;51.488;6.668;2023-10-13T05:41:02;8.73;;;5.45;;
22070;SDS011;11200;51.488;6.668;2023-10-13T05:43:47;6.88;;;5.28;;
22070;SDS011;11200;51.488;6.668;2023-10-13T05:46:32;6.72;;;5.45;;
22070;SDS011;11200;51.488;6.668;2023-10-13T05:49:14;6.90;;;5.50;;
22070;SDS011;11200;51.488;6.668;2023-10-13T05:51:43;7.43;;;5.00;;
22070;SDS011;11200;51.488;6.668;2023-10-13T05:54:23;8.65;;;4.97;;
22070;SDS011;11200;51.488;6.668;2023-10-13T05:57:07;5.80;;;4.50;;
22070;SDS011;11200;51.488;6.668;2023-10-13T06:00:05;5.93;;;5.00;;
22070;SDS011;11200;51.488;6.668;2023-10-13T06:02:49;7.45;;;4.78;;
22070;SDS011;11200;51.488;6.668;2023-10-13T06:05:33;6.55;;;5.45;;
22070;SDS011;11200;51.488;6.668;2023-10-13T06:08:17;7.10;;;4.82;;
22070;SDS011;11200;51.488;6.668;2023-10-13T06:11:18;6.57;;;4.80;;
22070;SDS011;11200;51.488;6.668;2023-10-13T06:14:03;5.85;;;4.93;;
22070;SDS011;11200;51.488;6.668;2023-10-13T06:16:47;6.35;;;4.78;;
22070;SDS011;11200;51.488;6.668;2023-10-13T06:19:35;5.28;;;4.22;;
22070;SDS011;11200;51.488;6.668;2023-10-13T06:22:19;6.22;;;4.93;;
22070;SDS011;11200;51.488;6.668;2023-10-13T06:25:03;7.05;;;5.00;;
22070;SDS011;11200;51.488;6.668;2023-10-13T06:27:48;5.65;;;4.57;;
22070;SDS011;11200;51.488;6.668;2023-10-13T06:30:32;7.30;;;4.65;;
22070;SDS011;11200;51.488;6.668;2023-10-13T06:32:58;6.30;;;4.90;;
22070;SDS011;11200;51.488;6.668;2023-10-13T06:35:23;6.35;;;4.60;;
22070;SDS011;11200;51.488;6.668;2023-10-13T06:37:55;7.43;;;4.60;;
22070;SDS011;11200;51.488;6.668;2023-10-13T06:40:25;6.72;;;4.30;;
22070;SDS011;11200;51.488;6.668;2023-10-13T06:42:54;8.38;;;4.72;;
22070;SDS011;11200;51.488;6.668;2023-10-13T06:45:42;5.63;;;4.28;;
22070;SDS011;11200;51.488;6.668;2023-10-13T06:48:08;5.65;;;4.20;;
22070;SDS011;11200;51.488;6.668;2023-10-13T06:50:37;6.28;;;4.38;;
22070;SDS011;11200;51.488;6.668;2023-10-13T06:53:11;7.45;;;4.60;;
22070;SDS011;11200;51.488;6.668;2023-10-13T06:55:37;6.28;;;4.10;;
22070;SDS011;11200;51.488;6.668;2023-10-13T06:58:08;6.18;;;4.30;;
22070;SDS011;11200;51.488;6.668;2023-10-13T07:00:38;7.07;;;4.40;;
22070;SDS011;11200;51.488;6.668;2023-10-13T07:03:06;8.15;;;4.80;;
22070;SDS011;11200;51.488;6.668;2023-10-13T07:05:42;6.93;;;4.25;;
22070;SDS011;11200;51.488;6.668;2023-10-13T07:08:08;7.32;;;4.40;;
22070;SDS011;11200;51.488;6.668;2023-10-13T07:10:52;7.40;;;4.55;;
22070;SDS011;11200;51.488;6.668;2023-10-13T07:13:28;6.97;;;4.30;;
22070;SDS011;11200;51.488;6.668;2023-10-13T07:15:54;7.80;;;4.30;;
22070;SDS011;11200;51.488;6.668;2023-10-13T07:18:25;7.10;;;4.40;;
22070;SDS011;11200;51.488;6.668;2023-10-13T07:20:51;7.82;;;4.07;;
22070;SDS011;11200;51.488;6.668;2023-10-13T07:23:22;6.95;;;3.95;;
22070;SDS011;11200;51.488;6.668;2023-10-13T07:25:56;8.30;;;3.83;;
22070;SDS011;11200;51.488;6.668;2023-10-13T07:28:33;8.23;;;4.85;;
22070;SDS011;11200;51.488;6.668;2023-10-13T07:31:08;6.50;;;3.80;;
22070;SDS011;11200;51.488;6.668;2023-10-13T07:33:40;6.55;;;4.03;;
22070;SDS011;11200;51.488;6.668;2023-10-13T07:36:07;6.78;;;4.18;;
22070;SDS011;11200;51.488;6.668;2023-10-13T07:38:41;10.52;;;3.95;;
22070;SDS011;11200;51.488;6.668;2023-10-13T07:41:08;8.45;;;3.92;;
22070;SDS011;11200;51.488;6.668;2023-10-13T07:43:34;5.32;;;4.13;;
22070;SDS011;11200;51.488;6.668;2023-10-13T07:46:04;7.22;;;4.47;;
22070;SDS011;11200;51.488;6.668;2023-10-13T07:48:52;7.88;;;4.43;;
22070;SDS011;11200;51.488;6.668;2023-10-13T07:51:19;6.53;;;4.10;;
22070;SDS011;11200;51.488;6.668;2023-10-13T07:53:47;7.75;;;4.72;;
22070;SDS011;11200;51.488;6.668;2023-10-13T07:56:18;6.85;;;4.00;;
22070;SDS011;11200;51.488;6.668;2023-10-13T07:58:44;8.15;;;4.25;;
22070;SDS011;11200;51.488;6.668;2023-10-13T08:01:25;7.75;;;4.40;;
22070;SDS011;11200;51.488;6.668;2023-10-13T08:03:55;8.02;;;4.30;;
22070;SDS011;11200;51.488;6.668;2023-10-13T08:06:30;8.05;;;4.50;;
22070;SDS011;11200;51.488;6.668;2023-10-13T08:08:56;6.88;;;4.28;;
22070;SDS011;11200;51.488;6.668;2023-10-13T08:11:35;7.57;;;4.38;;
22070;SDS011;11200;51.488;6.668;2023-10-13T08:14:02;9.30;;;4.30;;
22070;SDS011;11200;51.488;6.668;2023-10-13T08:16:47;8.27;;;4.72;;
22070;SDS011;11200;51.488;6.668;2023-10-13T08:19:17;8.40;;;4.45;;
22070;SDS011;11200;51.488;6.668;2023-10-13T08:21:52;6.63;;;4.65;;
22070;SDS011;11200;51.488;6.668;2023-10-13T08:24:50;7.30;;;4.40;;
22070;SDS011;11200;51.488;6.668;2023-10-13T08:27:20;7.78;;;4.80;;
22070;SDS011;11200;51.488;6.668;2023-10-13T08:30:06;6.40;;;4.30;;
22070;SDS011;11200;51.488;6.668;2023-10-13T08:32:51;6.30;;;4.82;;
22070;SDS011;11200;51.488;6.668;2023-10-13T08:35:24;7.60;;;4.60;;
22070;SDS011;11200;51.488;6.668;2023-10-13T08:37:50;8.60;;;4.78;;
22070;SDS011;11200;51.488;6.668;2023-10-13T08:40:16;6.25;;;4.53;;
22070;SDS011;11200;51.488;6.668;2023-10-13T08:43:00;6.82;;;4.30;;
22070;SDS011;11200;51.488;6.668;2023-10-13T08:45:30;7.32;;;5.10;;
22070;SDS011;11200;51.488;6.668;2023-10-13T08:47:59;11.10;;;4.80;;
22070;SDS011;11200;51.488;6.668;2023-10-13T08:50:38;5.72;;;4.50;;
22070;SDS011;11200;51.488;6.668;2023-10-13T08:58:30;6.78;;;4.30;;
22070;SDS011;11200;51.488;6.668;2023-10-13T09:01:15;8.02;;;4.95;;
22070;SDS011;11200;51.488;6.668;2023-10-13T09:04:04;8.10;;;4.53;;
22070;SDS011;11200;51.488;6.668;2023-10-13T09:06:55;5.75;;;4.32;;
22070;SDS011;11200;51.488;6.668;2023-10-13T09:09:24;8.90;;;4.80;;
22070;SDS011;11200;51.488;6.668;2023-10-13T09:12:20;6.68;;;4.40;;
22070;SDS011;11200;51.488;6.668;2023-10-13T09:15:07;7.00;;;4.38;;
22070;SDS011;11200;51.488;6.668;2023-10-13T09:17:40;7.53;;;4.72;;
22070;SDS011;11200;51.488;6.668;2023-10-13T09:20:17;7.28;;;4.68;;
22070;SDS011;11200;51.488;6.668;2023-10-13T09:23:11;6.97;;;4.53;;
22070;SDS011;11200;51.488;6.668;2023-10-13T09:25:49;6.25;;;4.32;;
22070;SDS011;11200;51.488;6.668;2023-10-13T09:28:34;8.38;;;4.47;;
22070;SDS011;11200;51.488;6.668;2023-10-13T09:31:02;7.05;;;4.30;;
22070;SDS011;11200;51.488;6.668;2023-10-13T09:33:57;6.88;;;4.50;;
22070;SDS011;11200;51.488;6.668;2023-10-13T09:36:23;9.75;;;4.75;;
22070;SDS011;11200;51.488;6.668;2023-10-13T09:38:50;8.73;;;4.60;;
22070;SDS011;11200;51.488;6.668;2023-10-13T09:42:05;9.48;;;4.72;;
22070;SDS011;11200;51.488;6.668;2023-10-13T09:45:13;10.48;;;5.18;;
22070;SDS011;11200;51.488;6.668;2023-10-13T09:47:40;7.07;;;4.72;;
22070;SDS011;11200;51.488;6.668;2023-10-13T09:50:09;8.40;;;5.05;;
22070;SDS011;11200;51.488;6.668;2023-10-13T09:52:49;8.88;;;4.72;;
22070;SDS011;11200;51.488;6.668;2023-10-13T09:59:45;7.55;;;4.97;;
22070;SDS011;11200;51.488;6.668;2023-10-13T10:02:17;9.52;;;5.75;;
22070;SDS011;11200;51.488;6.668;2023-10-13T10:04:51;8.18;;;4.75;;
22070;SDS011;11200;51.488;6.668;2023-10-13T10:07:28;10.38;;;5.55;;
22070;SDS011;11200;51.488;6.668;2023-10-13T10:09:57;10.10;;;5.25;;
22070;SDS011;11200;51.488;6.668;2023-10-13T10:17:55;8.35;;;5.60;;
22070;SDS011;11200;51.488;6.668;2023-10-13T10:20:28;6.55;;;5.05;;
22070;SDS011;11200;51.488;6.668;2023-10-13T10:23:04;8.50;;;5.38;;
22070;SDS011;11200;51.488;6.668;2023-10-13T10:25:35;9.25;;;5.70;;
22070;SDS011;11200;51.488;6.668;2023-10-13T10:28:01;8.75;;;5.10;;
22070;SDS011;11200;51.488;6.668;2023-10-13T10:30:32;8.40;;;5.57;;
22070;SDS011;11200;51.488;6.668;2023-10-13T10:33:07;7.25;;;5.30;;
22070;SDS011;11200;51.488;6.668;2023-10-13T10:35:44;7.35;;;5.57;;
22070;SDS011;11200;51.488;6.668;2023-10-13T10:38:12;8.05;;;5.78;;
22070;SDS011;11200;51.488;6.668;2023-10-13T10:43:38;7.47;;;5.70;;
22070;SDS011;11200;51.488;6.668;2023-10-13T10:46:08;7.18;;;5.57;;
22070;SDS011;11200;51.488;6.668;2023-10-13T10:48:36;10.55;;;5.57;;
22070;SDS011;11200;51.488;6.668;2023-10-13T10:51:03;7.07;;;5.82;;
22070;SDS011;11200;51.488;6.668;2023-10-13T10:53:39;9.60;;;5.93;;
22070;SDS011;11200;51.488;6.668;2023-10-13T10:56:11;9.85;;;6.35;;
22070;SDS011;11200;51.488;6.668;2023-10-13T11:02:02;8.68;;;6.43;;
22070;SDS011;11200;51.488;6.668;2023-10-13T11:04:28;7.35;;;6.32;;
22070;SDS011;11200;51.488;6.668;2023-10-13T11:06:59;9.07;;;5.97;;
22070;SDS011;11200;51.488;6.668;2023-10-13T11:09:25;10.60;;;7.20;;
22070;SDS011;11200;51.488;6.668;2023-10-13T11:11:52;9.48;;;6.50;;
22070;SDS011;11200;51.488;6.668;2023-10-13T11:14:19;8.10;;;6.18;;
22070;SDS011;11200;51.488;6.668;2023-10-13T11:16:48;7.95;;;6.43;;
22070;SDS011;11200;51.488;6.668;2023-10-13T11:19:16;9.75;;;6.72;;
22070;SDS011;11200;51.488;6.668;2023-10-13T11:21:48;8.55;;;6.60;;
22070;SDS011;11200;51.488;6.668;2023-10-13T11:24:14;9.18;;;6.50;;
22070;SDS011;11200;51.488;6.668;2023-10-13T11:26:42;9.68;;;7.22;;
22070;SDS011;11200;51.488;6.668;2023-10-13T11:29:15;9.57;;;6.63;;
22070;SDS011;11200;51.488;6.668;2023-10-13T11:35:21;9.10;;;6.85;;
22070;SDS011;11200;51.488;6.668;2023-10-13T11:38:40;10.10;;;6.97;;
22070;SDS011;11200;51.488;6.668;2023-10-13T11:41:23;11.15;;;6.93;;
22070;SDS011;11200;51.488;6.668;2023-10-13T11:43:59;10.65;;;6.95;;
22070;SDS011;11200;51.488;6.668;2023-10-13T11:46:51;10.10;;;7.13;;
22070;SDS011;11200;51.488;6.668;2023-10-13T11:49:35;9.35;;;6.90;;
22070;SDS011;11200;51.488;6.668;2023-10-13T11:52:05;10.68;;;7.03;;
22070;SDS011;11200;51.488;6.668;2023-10-13T11:54:40;8.90;;;6.97;;
22070;SDS011;11200;51.488;6.668;2023-10-13T11:57:07;13.93;;;7.00;;
22070;SDS011;11200;51.488;6.668;2023-10-13T11:59:33;11.15;;;7.32;;
22070;SDS011;11200;51.488;6.668;2023-10-13T12:02:01;11.85;;;7.05;;
22070;SDS011;11200;51.488;6.668;2023-10-13T12:04:36;13.10;;;6.93;;
22070;SDS011;11200;51.488;6.668;2023-10-13T12:07:11;15.48;;;7.07;;
22070;SDS011;11200;51.488;6.668;2023-10-13T12:10:01;12.55;;;6.97;;
22070;SDS011;11200;51.488;6.668;2023-10-13T12:12:52;11.27;;;6.90;;
22070;SDS011;11200;51.488;6.668;2023-10-13T12:15:19;9.20;;;6.70;;
22070;SDS011;11200;51.488;6.668;2023-10-13T12:23:08;11.18;;;6.53;;
22070;SDS011;11200;51.488;6.668;2023-10-13T12:25:47;13.25;;;6.78;;
22070;SDS011;11200;51.488;6.668;2023-10-13T12:28:22;11.15;;;6.47;;
22070;SDS011;11200;51.488;6.668;2023-10-13T12:33:27;11.40;;;7.15;;
22070;SDS011;11200;51.488;6.668;2023-10-13T12:36:02;11.13;;;6.47;;
22070;SDS011;11200;51.488;6.668;2023-10-13T12:38:55;14.90;;;6.88;;
22070;SDS011;11200;51.488;6.668;2023-10-13T12:44:40;13.23;;;6.82;;
22070;SDS011;11200;51.488;6.668;2023-10-13T12:47:24;12.90;;;6.45;;
22070;SDS011;11200;51.488;6.668;2023-10-13T12:50:08;14.98;;;6.60;;
22070;SDS011;11200;51.488;6.668;2023-10-13T12:52:39;11.07;;;6.70;;
22070;SDS011;11200;51.488;6.668;2023-10-13T12:55:11;10.60;;;6.50;;
22070;SDS011;11200;51.488;6.668;2023-10-13T12:57:38;12.32;;;6.45;;
22070;SDS011;11200;51.488;6.668;2023-10-13T13:00:08;11.60;;;6.55;;
22070;SDS011;11200;51.488;6.668;2023-10-13T13:09:39;9.23;;;6.18;;
22070;SDS011;11200;51.488;6.668;2023-10-13T13:12:09;10.75;;;6.38;;
22070;SDS011;11200;51.488;6.668;2023-10-13T13:14:43;17.15;;;7.07;;
22070;SDS011;11200;51.488;6.668;2023-10-13T13:17:31;11.88;;;5.88;;
22070;SDS011;11200;51.488;6.668;2023-10-13T13:20:08;14.05;;;6.93;;
22070;SDS011;11200;51.488;6.668;2023-10-13T13:22:57;12.00;;;7.15;;
22070;SDS011;11200;51.488;6.668;2023-10-13T13:25:32;13.20;;;6.30;;
22070;SDS011;11200;51.488;6.668;2023-10-13T13:28:10;15.27;;;6.68;;
22070;SDS011;11200;51.488;6.668;2023-10-13T13:30:37;12.55;;;6.55;;
22070;SDS011;11200;51.488;6.668;2023-10-13T13:33:05;12.77;;;6.72;;
22070;SDS011;11200;51.488;6.668;2023-10-13T13:35:40;13.15;;;6.15;;
22070;SDS011;11200;51.488;6.668;2023-10-13T13:38:08;13.32;;;6.30;;
22070;SDS011;11200;51.488;6.668;2023-10-13T13:40:56;14.95;;;6.90;;
22070;SDS011;11200;51.488;6.668;2023-10-13T13:43:22;12.07;;;6.10;;
22070;SDS011;11200;51.488;6.668;2023-10-13T13:46:06;12.90;;;6.53;;
22070;SDS011;11200;51.488;6.668;2023-10-13T13:48:38;11.32;;;5.93;;
22070;SDS011;11200;51.488;6.668;2023-10-13T13:51:06;13.32;;;7.00;;
22070;SDS011;11200;51.488;6.668;2023-10-13T13:53:45;13.35;;;6.13;;
22070;SDS011;11200;51.488;6.668;2023-10-13T13:56:13;13.75;;;6.40;;
22070;SDS011;11200;51.488;6.668;2023-10-13T13:58:42;12.50;;;6.10;;
22070;SDS011;11200;51.488;6.668;2023-10-13T14:01:08;12.40;;;6.47;;
22070;SDS011;11200;51.488;6.668;2023-10-13T14:03:45;12.55;;;6.45;;
22070;SDS011;11200;51.488;6.668;2023-10-13T14:06:15;12.07;;;6.30;;
22070;SDS011;11200;51.488;6.668;2023-10-13T14:09:08;11.02;;;6.40;;
22070;SDS011;11200;51.488;6.668;2023-10-13T14:11:41;10.95;;;6.10;;
22070;SDS011;11200;51.488;6.668;2023-10-13T14:14:26;12.55;;;6.22;;
22070;SDS011;11200;51.488;6.668;2023-10-13T14:16:52;9.82;;;6.07;;
22070;SDS011;11200;51.488;6.668;2023-10-13T14:19:18;14.18;;;6.65;;
22070;SDS011;11200;51.488;6.668;2023-10-13T14:21:54;10.25;;;6.03;;
22070;SDS011;11200;51.488;6.668;2023-10-13T14:24:24;14.23;;;6.40;;
22070;SDS011;11200;51.488;6.668;2023-10-13T14:26:59;12.90;;;6.78;;
22070;SDS011;11200;51.488;6.668;2023-10-13T14:29:43;9.80;;;6.20;;
22070;SDS011;11200;51.488;6.668;2023-10-13T14:32:09;13.73;;;6.30;;
22070;SDS011;11200;51.488;6.668;2023-10-13T14:34:39;14.55;;;6.38;;
22070;SDS011;11200;51.488;6.668;2023-10-13T14:37:06;9.75;;;5.85;;
22070;SDS011;11200;51.488;6.668;2023-10-13T14:39:32;10.25;;;5.90;;
22070;SDS011;11200;51.488;6.668;2023-10-13T14:42:00;15.13;;;7.03;;
22070;SDS011;11200;51.488;6.668;2023-10-13T14:44:27;13.25;;;6.40;;
22070;SDS011;11200;51.488;6.668;2023-10-13T14:46:53;12.52;;;6.05;;
22070;SDS011;11200;51.488;6.668;2023-10-13T14:49:22;12.80;;;6.43;;
22070;SDS011;11200;51.488;6.668;2023-10-13T14:51:48;14.60;;;6.18;;
22070;SDS011;11200;51.488;6.668;2023-10-13T14:54:14;13.45;;;5.95;;
22070;SDS011;11200;51.488;6.668;2023-10-13T14:56:40;9.85;;;5.95;;
22070;SDS011;11200;51.488;6.668;2023-10-13T14:59:09;12.88;;;5.90;;
22070;SDS011;11200;51.488;6.668;2023-10-13T15:01:42;8.90;;;5.57;;
22070;SDS011;11200;51.488;6.668;2023-10-13T15:04:11;11.52;;;6.05;;
22070;SDS011;11200;51.488;6.668;2023-10-13T15:06:37;11.90;;;5.95;;
22070;SDS011;11200;51.488;6.668;2023-10-13T15:09:06;9.00;;;6.00;;
22070;SDS011;11200;51.488;6.668;2023-10-13T15:11:36;13.25;;;5.80;;
22070;SDS011;11200;51.488;6.668;2023-10-13T15:14:02;12.05;;;6.28;;
22070;SDS011;11200;51.488;6.668;2023-10-13T15:16:28;10.82;;;5.82;;
22070;SDS011;11200;51.488;6.668;2023-10-13T15:18:54;11.10;;;5.68;;
22070;SDS011;11200;51.488;6.668;2023-10-13T15:21:23;10.50;;;5.72;;
22070;SDS011;11200;51.488;6.668;2023-10-13T15:23:57;11.48;;;6.00;;
22070;SDS011;11200;51.488;6.668;2023-10-13T15:26:29;10.23;;;5.57;;
22070;SDS011;11200;51.488;6.668;2023-10-13T15:28:59;10.45;;;5.80;;
22070;SDS011;11200;51.488;6.668;2023-10-13T15:31:25;9.60;;;5.57;;
22070;SDS011;11200;51.488;6.668;2023-10-13T15:34:02;9.40;;;5.47;;
22070;SDS011;11200;51.488;6.668;2023-10-13T15:36:37;11.00;;;5.50;;
22070;SDS011;11200;51.488;6.668;2023-10-13T15:39:10;11.20;;;5.50;;
22070;SDS011;11200;51.488;6.668;2023-10-13T15:41:37;12.27;;;5.78;;
22070;SDS011;11200;51.488;6.668;2023-10-13T15:44:06;11.23;;;5.72;;
22070;SDS011;11200;51.488;6.668;2023-10-13T15:46:38;12.40;;;5.70;;
22070;SDS011;11200;51.488;6.668;2023-10-13T15:49:04;9.98;;;5.25;;
22070;SDS011;11200;51.488;6.668;2023-10-13T15:51:32;12.52;;;6.13;;
22070;SDS011;11200;51.488;6.668;2023-10-13T15:54:01;11.73;;;5.70;;
22070;SDS011;11200;51.488;6.668;2023-10-13T15:56:40;10.05;;;5.97;;
22070;SDS011;11200;51.488;6.668;2023-10-13T15:59:10;11.60;;;5.60;;
22070;SDS011;11200;51.488;6.668;2023-10-13T16:01:36;8.00;;;5.85;;
22070;SDS011;11200;51.488;6.668;2023-10-13T16:04:04;9.93;;;5.65;;
22070;SDS011;11200;51.488;6.668;2023-10-13T16:06:40;10.88;;;5.68;;
22070;SDS011;11200;51.488;6.668;2023-10-13T16:09:06;9.15;;;5.78;;
22070;SDS011;11200;51.488;6.668;2023-10-13T16:11:39;8.18;;;5.28;;
22070;SDS011;11200;51.488;6.668;2023-10-13T16:14:09;9.70;;;5.68;;